Time;durP1;ratioP1;P1;durP2;ratioP2;P2;SDS_P1;SDS_P2;PMS_P1;PMS_P2;Temp;Humidity;BMP_temperature;BMP_pressure;BME280_temperature;BME280_humidity;BME280_pressure;Samples;Min_cycle;Max_cycle;Signal;HPM_P1;HPM_P2
2022/08/20 00:00:29;;;;;;;15.52;13.93;;;;;;;25.78;62.09;100860.28;5114116;27;98671;-67
2022/08/20 00:02:59;;;;;;;17.45;13.32;;;;;;;25.89;61.30;100861.91;5114633;27;96868;-67
2022/08/20 00:05:31;;;;;;;15.85;12.75;;;;;;;26.01;60.92;100865.28;5111204;27;99377;-67
2022/08/20 00:07:59;;;;;;;14.98;13.32;;;;;;;26.01;61.14;100870.69;5109237;27;99025;-67
2022/08/20 00:10:27;;;;;;;16.05;14.18;;;;;;;25.57;62.64;100875.88;5111216;27;96997;-68
2022/08/20 00:12:53;;;;;;;18.58;13.88;;;;;;;25.56;62.83;100876.84;5109572;27;99424;-67
2022/08/20 00:15:24;;;;;;;15.88;14.27;;;;;;;25.86;62.03;100883.88;5111274;27;98726;-67
2022/08/20 00:17:53;;;;;;;18.02;15.85;;;;;;;25.65;62.90;100889.53;5109995;27;99329;-67
2022/08/20 00:20:22;;;;;;;15.65;14.05;;;;;;;25.87;62.15;100885.56;5110741;27;97751;-67
2022/08/20 00:22:49;;;;;;;15.88;13.30;;;;;;;26.30;60.81;100881.38;5106469;27;97277;-67
2022/08/20 00:25:17;;;;;;;16.60;14.68;;;;;;;26.06;61.27;100880.06;5109017;27;99527;-67
2022/08/20 00:27:44;;;;;;;17.48;14.77;;;;;;;26.11;61.46;100882.34;5108673;27;98884;-67
2022/08/20 00:30:13;;;;;;;16.45;14.55;;;;;;;25.98;61.44;100885.41;5111156;27;96897;-67
2022/08/20 00:32:44;;;;;;;17.48;15.60;;;;;;;25.83;62.15;100888.72;5108253;27;97300;-67
2022/08/20 00:35:14;;;;;;;18.88;14.40;;;;;;;25.73;62.63;100889.59;5110850;27;100460;-67
2022/08/20 00:37:40;;;;;;;16.23;14.30;;;;;;;25.47;63.50;100888.53;5109539;27;101131;-67
2022/08/20 00:40:09;;;;;;;17.30;14.30;;;;;;;25.56;63.16;100890.38;5112894;27;96870;-67
2022/08/20 00:42:41;;;;;;;16.27;14.07;;;;;;;25.77;62.39;100888.34;5108612;27;97359;-67
2022/08/20 00:45:07;;;;;;;17.27;14.57;;;;;;;25.61;62.77;100885.38;5106277;27;98941;-67
2022/08/20 00:47:34;;;;;;;18.02;14.23;;;;;;;25.70;62.65;100883.66;5109163;27;98500;-67
2022/08/20 00:50:00;;;;;;;17.88;14.02;;;;;;;25.93;61.99;100884.97;5111385;27;97158;-67
2022/08/20 00:52:28;;;;;;;17.77;14.95;;;;;;;26.14;61.23;100887.44;5110113;27;98578;-67
2022/08/20 00:54:58;;;;;;;17.27;14.65;;;;;;;25.92;61.52;100883.28;5107023;27;98986;-66
2022/08/20 00:57:29;;;;;;;17.52;14.77;;;;;;;25.97;60.96;100882.81;5109228;27;99331;-66
2022/08/20 00:59:57;;;;;;;15.02;13.43;;;;;;;25.74;62.01;100883.19;5112810;27;96720;-67
2022/08/20 01:02:26;;;;;;;15.75;13.18;;;;;;;25.70;61.98;100887.22;5108615;27;98665;-67
2022/08/20 01:04:53;;;;;;;16.67;14.23;;;;;;;25.67;62.49;100883.94;5110369;27;99015;-67
2022/08/20 01:07:23;;;;;;;15.43;13.10;;;;;;;25.60;62.59;100886.38;5108537;27;98890;-66
2022/08/20 01:09:51;;;;;;;14.00;12.00;;;;;;;26.09;60.73;100889.75;5109119;27;97351;-66
2022/08/20 01:12:18;;;;;;;15.25;12.50;;;;;;;25.83;61.60;100889.59;5110243;27;96783;-66
2022/08/20 01:14:46;;;;;;;14.00;12.60;;;;;;;25.70;62.09;100887.22;5106428;27;100841;-66
2022/08/20 01:17:18;;;;;;;17.40;12.55;;;;;;;25.62;62.17;100902.47;5107877;27;99342;-66
2022/08/20 01:19:48;;;;;;;15.07;12.60;;;;;;;25.38;62.84;100895.69;5112238;27;97179;-66
2022/08/20 01:25:12;;;;;;;13.93;12.30;;;;;;;25.56;62.41;100903.88;5105096;27;96899;-67
2022/08/20 01:27:41;;;;;;;15.10;12.98;;;;;;;25.59;62.03;100900.94;5108723;27;99159;-67
2022/08/20 01:30:08;;;;;;;13.68;12.23;;;;;;;25.74;61.72;100904.00;5111851;27;96803;-67
2022/08/20 01:32:35;;;;;;;14.48;12.75;;;;;;;25.72;61.77;100901.47;5109638;27;97201;-67
2022/08/20 01:35:01;;;;;;;16.23;12.93;;;;;;;25.87;61.29;100900.94;5108279;27;101824;-66
2022/08/20 01:37:28;;;;;;;15.27;13.13;;;;;;;25.90;61.43;100895.25;5108922;27;98919;-67
2022/08/20 01:39:54;;;;;;;14.52;12.88;;;;;;;25.76;61.92;100900.16;5110993;27;97263;-67
2022/08/20 01:42:27;;;;;;;14.15;12.70;;;;;;;25.88;61.71;100900.81;5108562;27;97070;-67
2022/08/20 01:44:55;;;;;;;14.32;12.68;;;;;;;25.94;61.34;100902.91;5105395;27;98689;-67
2022/08/20 01:47:25;;;;;;;12.98;11.68;;;;;;;25.56;62.16;100903.88;5108465;27;98742;-67
2022/08/20 01:49:54;;;;;;;15.85;10.63;;;;;;;25.24;64.15;100903.41;5109861;27;97155;-67
2022/08/20 01:52:27;;;;;;;11.95;10.75;;;;;;;24.73;66.16;100904.53;5110211;27;98574;-67
2022/08/20 01:54:54;;;;;;;11.40;10.30;;;;;;;24.99;65.73;100911.13;5106056;27;98973;-67
2022/08/20 01:57:25;;;;;;;14.60;10.65;;;;;;;25.25;65.18;100910.53;5108006;27;98818;-67
2022/08/20 01:59:52;;;;;;;11.23;10.10;;;;;;;25.47;63.84;100907.47;5106584;27;99221;-67
2022/08/20 02:02:20;;;;;;;9.93;8.93;;;;;;;25.48;63.44;100911.88;5104833;27;98412;-67
2022/08/20 02:04:46;;;;;;;10.27;9.27;;;;;;;25.21;64.50;100917.19;5108186;27;101708;-67
2022/08/20 02:07:15;;;;;;;9.25;8.35;;;;;;;25.31;64.15;100909.94;5108507;27;102450;-67
2022/08/20 02:09:42;;;;;;;10.90;9.90;;;;;;;25.09;65.18;100921.91;5111406;27;97319;-67
2022/08/20 02:12:10;;;;;;;10.88;9.63;;;;;;;25.00;65.76;100918.22;5109043;27;97711;-67
2022/08/20 02:14:41;;;;;;;9.98;9.07;;;;;;;25.06;65.78;100915.94;5110762;27;98964;-67
2022/08/20 02:17:08;;;;;;;10.68;9.55;;;;;;;25.21;65.08;100917.19;5108199;27;98534;-67
2022/08/20 02:19:40;;;;;;;14.10;9.80;;;;;;;25.18;65.53;100917.50;5108710;27;98599;-67
2022/08/20 02:22:23;;;;;;;12.25;10.15;;;;;;;25.38;64.70;100922.75;5110794;27;97280;-66
2022/08/20 02:24:50;;;;;;;11.57;10.30;;;;;;;25.59;64.06;100925.28;5107505;27;99172;-68
2022/08/20 02:27:17;;;;;;;12.75;11.35;;;;;;;25.66;63.55;100931.81;5108652;27;98824;-66
2022/08/20 02:29:45;;;;;;;12.30;11.10;;;;;;;25.91;62.42;100926.75;5109604;27;97043;-68
2022/08/20 02:32:12;;;;;;;12.65;11.32;;;;;;;25.90;62.36;100923.19;5108537;27;97447;-67
2022/08/20 02:34:40;;;;;;;13.15;11.75;;;;;;;25.71;62.32;100926.81;5109739;27;98983;-67
2022/08/20 02:37:07;;;;;;;13.40;11.88;;;;;;;25.84;62.87;100937.31;5109050;27;101831;-67
2022/08/20 02:39:34;;;;;;;13.57;12.18;;;;;;;25.99;62.23;100930.38;5109527;27;97236;-67
2022/08/20 02:42:02;;;;;;;14.88;13.40;;;;;;;26.01;62.28;100935.66;5106733;27;96867;-67
2022/08/20 02:44:29;;;;;;;12.55;11.40;;;;;;;26.18;61.87;100940.31;5108339;27;99002;-67
2022/08/20 02:46:55;;;;;;;13.68;11.80;;;;;;;26.28;61.56;100938.41;5113305;27;100976;-67
2022/08/20 02:49:22;;;;;;;14.40;12.90;;;;;;;26.23;61.52;100935.28;5110589;27;98654;-67
2022/08/20 02:51:49;;;;;;;15.50;13.52;;;;;;;26.15;61.55;100944.16;5109824;27;96781;-67
2022/08/20 02:54:16;;;;;;;14.70;13.15;;;;;;;26.15;61.75;100933.31;5109361;27;99242;-67
2022/08/20 02:56:43;;;;;;;16.13;13.60;;;;;;;26.19;62.13;100933.84;5111494;27;98811;-67
2022/08/20 02:59:10;;;;;;;15.57;13.18;;;;;;;26.24;61.56;100931.63;5113329;27;97844;-67
2022/08/20 03:01:37;;;;;;;15.70;14.07;;;;;;;26.10;61.52;100929.38;5110107;27;97003;-66
2022/08/20 03:04:04;;;;;;;17.25;14.93;;;;;;;25.95;62.43;100930.84;5113357;27;99318;-67
2022/08/20 03:06:31;;;;;;;19.10;14.95;;;;;;;25.96;62.40;100921.72;5114215;27;98836;-68
2022/08/20 03:08:59;;;;;;;17.60;14.90;;;;;;;25.97;62.40;100927.00;5114286;27;97043;-67
2022/08/20 03:11:25;;;;;;;21.95;16.95;;;;;;;25.71;63.15;100913.28;5111845;27;96962;-66
2022/08/20 03:13:52;;;;;;;20.92;15.50;;;;;;;25.88;62.78;100910.78;5114157;27;98143;-66
2022/08/20 03:16:18;;;;;;;20.98;16.45;;;;;;;25.88;62.88;100914.34;5110550;27;99088;-67
2022/08/20 03:18:47;;;;;;;22.40;17.60;;;;;;;25.95;62.11;100901.91;5112057;27;96804;-67
2022/08/20 03:21:13;;;;;;;21.38;16.50;;;;;;;26.09;62.13;100906.00;5104405;27;96995;-67
2022/08/20 03:23:40;;;;;;;22.35;18.85;;;;;;;25.75;62.67;100906.56;5112527;27;99015;-67
2022/08/20 03:26:11;;;;;;;25.05;19.63;;;;;;;25.60;63.51;100901.78;5107503;27;101084;-67
2022/08/20 03:28:38;;;;;;;24.60;18.90;;;;;;;25.54;63.54;100908.59;5107261;27;97315;-67
2022/08/20 03:31:05;;;;;;;24.02;19.00;;;;;;;25.74;63.22;100904.00;5109229;27;97438;-67
2022/08/20 03:33:31;;;;;;;24.42;20.02;;;;;;;25.69;63.36;100900.88;5111290;27;99133;-67
2022/08/20 03:36:00;;;;;;;23.95;19.98;;;;;;;25.62;63.72;100903.34;5111914;27;98864;-67
2022/08/20 03:38:27;;;;;;;24.17;20.33;;;;;;;25.77;63.54;100906.41;5112351;27;96728;-67
2022/08/20 03:40:53;;;;;;;24.25;19.85;;;;;;;25.81;63.18;100902.41;5113957;27;97310;-67
2022/08/20 03:43:21;;;;;;;29.77;21.83;;;;;;;25.63;62.92;100893.38;5114073;27;99164;-66
2022/08/20 03:45:47;;;;;;;24.85;20.30;;;;;;;25.42;63.95;100905.22;5111473;27;99279;-67
2022/08/20 03:48:16;;;;;;;26.00;21.02;;;;;;;25.30;64.37;100897.41;5107793;27;97792;-67
2022/08/20 03:50:43;;;;;;;25.73;20.98;;;;;;;25.45;63.96;100901.38;5110990;27;98784;-67
2022/08/20 03:53:11;;;;;;;27.75;21.60;;;;;;;25.72;63.58;100895.19;5111907;27;98840;-65
2022/08/20 03:55:39;;;;;;;32.60;21.38;;;;;;;25.52;63.50;100907.03;5110916;27;98612;-66
2022/08/20 03:58:08;;;;;;;29.08;22.50;;;;;;;25.49;63.88;100910.88;5109790;27;97068;-65
2022/08/20 04:00:40;;;;;;;26.02;20.73;;;;;;;25.12;64.53;100908.13;5112271;27;98552;-66
2022/08/20 04:03:08;;;;;;;28.80;22.15;;;;;;;25.53;63.68;100908.75;5109451;27;100444;-65
2022/08/20 04:05:39;;;;;;;28.10;22.02;;;;;;;25.64;63.54;100916.72;5109469;27;98854;-67
2022/08/20 04:08:08;;;;;;;27.63;21.83;;;;;;;25.42;63.76;100916.03;5112037;27;96783;-67
2022/08/20 04:10:35;;;;;;;29.15;21.73;;;;;;;25.53;63.61;100915.03;5110011;27;98544;-67
2022/08/20 04:13:01;;;;;;;26.13;21.00;;;;;;;25.64;63.54;100916.72;5110209;27;99461;-65
2022/08/20 04:15:27;;;;;;;29.92;21.20;;;;;;;25.67;63.43;100913.72;5110042;27;98786;-65
2022/08/20 04:17:55;;;;;;;28.60;21.80;;;;;;;25.60;63.41;100921.56;5110970;27;98253;-67
2022/08/20 04:20:24;;;;;;;28.38;21.38;;;;;;;25.90;62.41;100927.75;5112436;27;97820;-66
2022/08/20 04:22:52;;;;;;;26.02;21.08;;;;;;;25.87;62.30;100928.03;5111634;27;100732;-66
2022/08/20 04:25:18;;;;;;;29.00;22.05;;;;;;;25.89;62.36;100931.44;5108981;27;99102;-67
2022/08/20 04:27:45;;;;;;;29.98;21.83;;;;;;;25.91;61.83;100929.44;5110482;27;96954;-67
2022/08/20 04:30:14;;;;;;;26.50;21.40;;;;;;;25.60;62.61;100931.56;5106639;27;96894;-67
2022/08/20 04:32:40;;;;;;;28.05;22.23;;;;;;;25.61;62.93;100928.69;5107771;27;99541;-67
2022/08/20 04:35:13;;;;;;;26.42;21.48;;;;;;;25.24;63.44;100923.19;5108909;27;98520;-67
2022/08/20 04:37:40;;;;;;;29.15;21.85;;;;;;;25.48;63.74;100920.00;5107499;27;97217;-67
2022/08/20 04:42:56;;;;;;;29.38;21.45;;;;;;;25.36;63.66;100923.88;5107917;27;97809;-67
2022/08/20 04:45:23;;;;;;;28.77;21.27;;;;;;;25.29;63.85;100929.00;5109478;27;98857;-67
2022/08/20 04:47:51;;;;;;;25.38;20.20;;;;;;;25.50;63.73;100926.13;5112419;27;96834;-67
2022/08/20 04:50:20;;;;;;;26.20;20.05;;;;;;;25.75;62.62;100925.50;5104552;27;98430;-67
2022/08/20 04:52:47;;;;;;;29.15;22.00;;;;;;;25.78;62.64;100930.66;5110011;27;100126;-67
2022/08/20 04:55:15;;;;;;;26.65;21.17;;;;;;;25.75;62.08;100932.78;5106172;27;102108;-67
2022/08/20 04:57:43;;;;;;;29.70;21.15;;;;;;;26.01;61.58;100932.97;5108992;27;96953;-67
2022/08/20 05:00:16;;;;;;;28.67;21.08;;;;;;;25.78;62.46;100941.47;5112476;27;98320;-67
2022/08/20 05:02:43;;;;;;;26.60;21.63;;;;;;;25.45;63.38;100932.97;5110363;27;98151;-66
2022/08/20 05:05:10;;;;;;;25.80;20.88;;;;;;;25.35;64.06;100943.78;5108431;27;98913;-67
2022/08/20 05:07:44;;;;;;;29.15;22.17;;;;;;;25.46;63.71;100942.81;5109553;27;97172;-67
2022/08/20 05:10:13;;;;;;;28.92;22.05;;;;;;;25.72;62.93;100952.88;5111766;27;98513;-66
2022/08/20 05:12:41;;;;;;;27.08;21.75;;;;;;;25.50;64.06;100952.31;5110267;27;102059;-66
2022/08/20 05:15:10;;;;;;;26.50;21.70;;;;;;;25.56;63.58;100952.59;5109323;27;98762;-67
2022/08/20 05:17:36;;;;;;;43.15;23.05;;;;;;;25.95;62.18;100969.59;5109345;27;96953;-66
2022/08/20 05:20:04;;;;;;;27.98;21.35;;;;;;;25.98;62.02;100963.91;5109725;27;96871;-66
2022/08/20 05:22:30;;;;;;;31.65;23.00;;;;;;;25.82;62.19;100965.50;5111566;27;99834;-67
2022/08/20 05:25:00;;;;;;;25.42;20.20;;;;;;;25.98;61.69;100949.50;5107697;27;99146;-67
2022/08/20 05:27:27;;;;;;;28.25;20.70;;;;;;;26.03;61.24;100955.34;5107456;27;96788;-67
2022/08/20 05:29:54;;;;;;;29.63;23.30;;;;;;;26.12;61.33;100957.16;5109937;27;96950;-67
2022/08/20 05:32:21;;;;;;;27.77;20.95;;;;;;;26.08;61.14;100953.03;5110749;27;98916;-68
2022/08/20 05:34:47;;;;;;;27.80;21.05;;;;;;;26.11;61.12;100950.03;5105653;27;98924;-66
2022/08/20 05:37:14;;;;;;;28.08;21.55;;;;;;;26.07;60.93;100960.28;5106857;27;98352;-67
2022/08/20 05:39:41;;;;;;;29.00;21.05;;;;;;;25.93;61.42;100959.94;5107579;27;97295;-67
2022/08/20 05:42:08;;;;;;;35.30;26.65;;;;;;;26.07;60.98;100956.72;5109128;27;99615;-67
2022/08/20 05:44:36;;;;;;;29.27;21.20;;;;;;;26.08;60.64;100959.28;5107647;27;98950;-67
2022/08/20 05:47:03;;;;;;;28.92;21.90;;;;;;;26.03;60.45;100958.03;5108630;27;96758;-67
2022/08/20 05:49:30;;;;;;;27.92;23.27;;;;;;;25.44;62.14;100961.88;5110403;27;98264;-67
2022/08/20 05:51:57;;;;;;;28.83;22.00;;;;;;;25.74;61.77;100963.53;5110120;27;97913;-67
2022/08/20 05:54:23;;;;;;;29.50;22.92;;;;;;;25.73;61.35;100965.38;5105176;27;101272;-66
2022/08/20 05:56:50;;;;;;;30.45;22.52;;;;;;;25.55;62.31;100960.84;5105410;27;97304;-67
2022/08/20 05:59:18;;;;;;;26.90;21.65;;;;;;;25.69;61.94;100964.00;5108009;27;96812;-67
2022/08/20 06:01:44;;;;;;;27.52;21.15;;;;;;;25.62;61.79;100968.28;5108959;27;99075;-67
2022/08/20 06:04:26;;;;;;;30.65;22.45;;;;;;;25.54;62.29;100961.84;5106608;27;98844;-67
2022/08/20 06:06:55;;;;;;;30.42;22.75;;;;;;;25.21;62.96;100968.56;5106793;27;96871;-67
2022/08/20 06:09:23;;;;;;;31.40;21.60;;;;;;;25.84;61.52;100966.22;5108234;27;97593;-67
2022/08/20 06:11:50;;;;;;;27.63;21.30;;;;;;;25.82;61.12;100962.81;5108501;27;97683;-67
2022/08/20 06:14:19;;;;;;;27.13;22.23;;;;;;;25.67;61.28;100968.69;5106118;27;97854;-67
2022/08/20 06:16:46;;;;;;;26.52;20.65;;;;;;;25.82;60.49;100969.09;5109892;27;96818;-67
2022/08/20 06:19:13;;;;;;;27.75;20.27;;;;;;;25.99;60.03;100975.59;5109096;27;98858;-67
2022/08/20 06:21:40;;;;;;;24.70;21.10;;;;;;;25.91;59.68;100978.19;5113139;27;98624;-67
2022/08/20 06:24:07;;;;;;;30.45;22.02;;;;;;;26.23;59.34;100984.03;5107400;27;98898;-66
2022/08/20 06:26:34;;;;;;;26.95;21.30;;;;;;;26.28;58.87;100981.75;5109675;27;98727;-69
2022/08/20 06:29:01;;;;;;;26.63;21.17;;;;;;;26.27;58.52;100984.59;5114153;27;96964;-67
2022/08/20 06:31:29;;;;;;;26.92;20.77;;;;;;;26.17;58.78;100993.63;5111837;27;101084;-67
2022/08/20 06:33:56;;;;;;;28.40;21.83;;;;;;;25.76;59.92;100986.75;5112146;27;98829;-67
2022/08/20 06:36:26;;;;;;;26.60;21.08;;;;;;;25.64;60.83;100989.78;5109342;27;97606;-68
2022/08/20 06:38:55;;;;;;;28.75;20.48;;;;;;;26.05;60.00;100999.38;5107842;27;96918;-68
2022/08/20 06:41:21;;;;;;;26.23;20.52;;;;;;;26.21;59.28;101007.69;5114553;27;97880;-67
2022/08/20 06:43:47;;;;;;;28.60;21.90;;;;;;;26.11;59.27;101002.34;5106337;27;98836;-68
2022/08/20 06:46:14;;;;;;;27.75;20.33;;;;;;;25.74;60.63;101004.13;5109897;27;97205;-67
2022/08/20 06:48:42;;;;;;;26.70;21.48;;;;;;;25.80;60.23;100999.00;5107056;27;96862;-68
2022/08/20 06:51:09;;;;;;;29.10;21.60;;;;;;;25.71;60.53;100999.88;5113122;27;99346;-68
2022/08/20 06:53:36;;;;;;;27.75;21.15;;;;;;;26.23;59.52;101000.28;5109411;27;100129;-68
2022/08/20 06:56:03;;;;;;;26.30;21.15;;;;;;;26.26;59.25;100991.88;5100651;27;97742;-67
2022/08/20 06:58:30;;;;;;;27.40;21.05;;;;;;;26.17;58.88;101000.88;5108106;27;97162;-68
2022/08/20 07:00:57;;;;;;;31.90;22.25;;;;;;;26.28;58.94;100994.44;5115272;27;98924;-69
2022/08/20 07:03:24;;;;;;;28.58;21.63;;;;;;;25.60;60.18;101001.91;5114228;27;98801;-68
2022/08/20 07:05:51;;;;;;;28.85;21.15;;;;;;;25.86;59.96;100999.44;5108360;27;97640;-68
2022/08/20 07:08:20;;;;;;;28.00;22.35;;;;;;;25.80;60.50;101004.41;5101896;27;98974;-68
2022/08/20 07:10:53;;;;;;;29.23;21.02;;;;;;;26.06;60.33;101017.28;5110582;27;98980;-68
2022/08/20 07:13:19;;;;;;;28.85;22.10;;;;;;;26.00;60.01;101009.75;5112829;27;99020;-67
2022/08/20 07:15:46;;;;;;;29.08;22.45;;;;;;;26.22;59.92;101017.53;5110041;27;99061;-67
2022/08/20 07:18:13;;;;;;;28.77;22.23;;;;;;;25.96;59.94;101011.94;5099300;27;99114;-68
2022/08/20 07:20:41;;;;;;;30.60;22.67;;;;;;;25.88;60.21;101024.47;5109044;27;99261;-67
2022/08/20 07:23:09;;;;;;;30.20;23.23;;;;;;;25.67;61.69;101024.66;5101132;27;99210;-68
2022/08/20 07:25:35;;;;;;;29.85;22.77;;;;;;;25.73;61.24;101022.22;5110412;27;97292;-67
2022/08/20 07:28:03;;;;;;;31.33;24.27;;;;;;;25.60;61.91;101032.50;5105138;27;97519;-68
2022/08/20 07:33:15;;;;;;;31.92;24.13;;;;;;;25.69;61.24;101034.34;5110789;27;97153;-67
2022/08/20 07:35:42;;;;;;;29.98;23.45;;;;;;;25.68;61.35;101042.59;5110665;27;96815;-67
2022/08/20 07:38:22;;;;;;;30.92;24.20;;;;;;;25.52;61.80;101045.88;5109173;27;96830;-67
2022/08/20 07:40:49;;;;;;;27.48;22.58;;;;;;;25.68;61.32;101042.59;5107833;27;99309;-68
2022/08/20 07:43:16;;;;;;;34.08;23.70;;;;;;;25.71;61.00;101047.75;5106902;27;97668;-67
2022/08/20 07:45:42;;;;;;;35.85;25.17;;;;;;;25.88;61.08;101046.13;5111345;27;99420;-68
2022/08/20 07:48:11;;;;;;;36.60;25.30;;;;;;;25.89;61.01;101042.44;5111284;27;97321;-68
2022/08/20 07:50:39;;;;;;;34.10;25.38;;;;;;;26.11;60.34;101045.66;5109176;27;98961;-67
2022/08/20 07:53:05;;;;;;;32.70;24.25;;;;;;;26.12;59.94;101046.53;5110578;27;99504;-68
2022/08/20 07:55:33;;;;;;;33.20;24.92;;;;;;;26.29;59.59;101040.34;5112607;27;97419;-68
2022/08/20 07:58:07;;;;;;;36.55;26.00;;;;;;;26.41;59.19;101039.16;5109019;27;97526;-68
2022/08/20 08:00:34;;;;;;;36.47;26.25;;;;;;;26.15;59.78;101040.78;5108770;27;98986;-67
2022/08/20 08:03:00;;;;;;;38.92;28.48;;;;;;;25.97;60.61;101038.00;5109671;27;99162;-68
2022/08/20 08:05:28;;;;;;;34.95;25.92;;;;;;;26.25;59.97;101041.66;5112976;27;98291;-67
2022/08/20 08:07:56;;;;;;;33.92;27.10;;;;;;;26.41;59.12;101047.28;5111810;27;97384;-69
2022/08/20 08:10:23;;;;;;;34.22;26.38;;;;;;;26.43;59.24;101050.72;5110209;27;98860;-67
2022/08/20 08:12:53;;;;;;;38.03;27.05;;;;;;;26.23;59.45;101051.75;5110034;27;101154;-67
2022/08/20 08:15:24;;;;;;;36.70;27.38;;;;;;;26.43;59.54;101050.72;5106581;27;100432;-68
2022/08/20 08:17:52;;;;;;;36.60;26.33;;;;;;;26.68;59.28;101053.72;5103207;27;98027;-68
2022/08/20 08:20:20;;;;;;;37.65;26.75;;;;;;;26.62;59.73;101054.31;5114841;27;101027;-68
2022/08/20 08:25:42;;;;;;;37.33;28.30;;;;;;;26.27;60.36;101063.16;5110865;27;96944;-68
2022/08/20 08:28:10;;;;;;;38.28;29.02;;;;;;;26.35;60.11;101066.84;5109101;27;97767;-69
2022/08/20 08:30:37;;;;;;;40.67;29.00;;;;;;;26.15;60.30;101059.75;5108552;27;98916;-68
2022/08/20 08:35:48;;;;;;;38.97;28.67;;;;;;;25.63;62.52;101067.41;5108861;27;96826;-68
2022/08/20 08:38:16;;;;;;;39.15;29.88;;;;;;;25.79;61.80;101066.84;5110621;27;98057;-68
2022/08/20 08:40:43;;;;;;;41.35;30.52;;;;;;;25.96;61.45;101060.66;5111612;27;98956;-68
2022/08/20 08:43:13;;;;;;;36.30;28.75;;;;;;;26.00;61.22;101064.78;5101600;27;98973;-68
2022/08/20 08:45:44;;;;;;;42.55;29.80;;;;;;;25.61;62.60;101061.28;5111724;27;97279;-68
2022/08/20 08:48:12;;;;;;;40.05;29.27;;;;;;;25.79;62.10;101061.41;5102377;27;96670;-68
2022/08/20 08:50:41;;;;;;;43.67;30.10;;;;;;;25.77;62.04;101060.69;5111692;27;98994;-68
2022/08/20 08:53:10;;;;;;;40.03;29.52;;;;;;;26.09;61.17;101061.19;5112406;27;98831;-68
2022/08/20 08:55:37;;;;;;;42.42;29.40;;;;;;;26.14;60.53;101066.16;5110550;27;96734;-68
2022/08/20 08:58:03;;;;;;;38.35;29.85;;;;;;;26.23;60.62;101064.44;5106158;27;97406;-68
2022/08/20 09:00:31;;;;;;;39.78;28.48;;;;;;;26.72;58.78;101061.41;5109433;27;99006;-68
2022/08/20 09:03:04;;;;;;;36.97;28.73;;;;;;;26.71;58.22;101062.44;5108570;27;102837;-68
2022/08/20 09:05:38;;;;;;;40.70;28.25;;;;;;;26.79;58.15;101061.63;5106528;27;97924;-68
2022/08/20 09:08:10;;;;;;;40.53;29.42;;;;;;;26.70;58.49;101068.00;5107875;27;96830;-68
2022/08/20 09:10:37;;;;;;;39.33;29.65;;;;;;;26.45;59.47;101078.50;5112538;27;99002;-69
2022/08/20 09:13:04;;;;;;;40.33;28.25;;;;;;;26.64;59.71;101084.84;5107969;27;99187;-69
2022/08/20 09:15:31;;;;;;;41.53;30.25;;;;;;;26.50;58.83;101086.19;5108220;27;96643;-69
2022/08/20 09:17:58;;;;;;;40.85;29.10;;;;;;;26.24;59.60;101080.59;5105269;27;96982;-69
2022/08/20 09:20:24;;;;;;;42.80;29.58;;;;;;;26.15;60.14;101084.13;5102988;27;99400;-69
2022/08/20 09:22:51;;;;;;;40.05;29.13;;;;;;;26.08;60.72;101086.56;5107231;27;98977;-69
2022/08/20 09:25:18;;;;;;;38.45;29.05;;;;;;;25.49;61.90;101094.00;5104811;27;96850;-69
2022/08/20 09:27:44;;;;;;;34.22;26.80;;;;;;;25.74;60.81;101091.59;5106344;27;97508;-69
2022/08/20 09:30:12;;;;;;;39.10;28.10;;;;;;;25.57;61.25;101095.03;5106938;27;99697;-69
2022/08/20 09:32:41;;;;;;;33.25;26.00;;;;;;;25.46;61.63;101087.03;5116339;27;98296;-69
2022/08/20 09:35:08;;;;;;;35.97;26.88;;;;;;;25.89;60.16;101085.75;5117606;27;97393;-69
2022/08/20 09:37:35;;;;;;;35.05;26.60;;;;;;;26.04;60.10;101087.88;5110326;27;96890;-69
2022/08/20 09:40:03;;;;;;;29.90;24.30;;;;;;;26.30;58.77;101093.53;5103785;27;99004;-69
2022/08/20 09:42:32;;;;;;;33.83;24.33;;;;;;;26.69;57.79;101096.09;5109371;27;98034;-69
2022/08/20 09:45:00;;;;;;;31.65;24.55;;;;;;;26.86;57.71;101100.69;5105880;27;97152;-69
2022/08/20 09:47:27;;;;;;;31.42;23.88;;;;;;;27.26;55.74;101100.34;5107693;27;96942;-69
2022/08/20 09:49:55;;;;;;;31.92;23.38;;;;;;;27.29;54.94;101095.47;5109000;27;99504;-69
2022/08/20 09:52:26;;;;;;;28.60;22.52;;;;;;;27.19;54.79;101097.41;5108453;27;98757;-68
2022/08/20 09:55:01;;;;;;;29.83;21.60;;;;;;;27.29;54.53;101094.63;5103314;27;98108;-69
2022/08/20 09:57:29;;;;;;;31.88;23.30;;;;;;;27.22;54.65;101088.97;5111380;27;96803;-69
2022/08/20 09:59:59;;;;;;;30.70;21.63;;;;;;;26.70;55.92;101098.66;5107018;27;101552;-69
2022/08/20 10:02:25;;;;;;;28.05;21.20;;;;;;;26.74;56.28;101091.94;5110064;27;99040;-68
2022/08/20 10:04:52;;;;;;;28.38;20.58;;;;;;;26.84;56.39;101091.88;5106308;27;97070;-69
2022/08/20 10:07:20;;;;;;;27.05;21.33;;;;;;;26.79;55.89;101095.03;5110790;27;96900;-68
2022/08/20 10:09:46;;;;;;;28.40;20.42;;;;;;;27.31;55.27;101096.16;5106785;27;99166;-69
2022/08/20 10:12:12;;;;;;;25.30;19.70;;;;;;;27.58;54.42;101086.28;5114077;27;98746;-69
2022/08/20 10:14:39;;;;;;;26.50;20.27;;;;;;;27.85;53.01;101093.47;5109906;27;97208;-69
2022/08/20 10:17:10;;;;;;;24.20;18.73;;;;;;;27.90;52.32;101088.41;5112893;27;96952;-72
2022/08/20 10:19:37;;;;;;;25.33;18.92;;;;;;;27.60;52.14;101089.69;5108592;27;101056;-68
2022/08/20 10:22:04;;;;;;;24.42;17.80;;;;;;;27.94;51.76;101093.38;5115089;27;101931;-69
2022/08/20 10:24:32;;;;;;;22.75;17.23;;;;;;;28.37;50.63;101095.22;5108962;27;97290;-69
2022/08/20 10:27:01;;;;;;;21.70;16.85;;;;;;;28.45;50.32;101088.97;5113428;27;96823;-70
2022/08/20 10:29:29;;;;;;;19.48;15.98;;;;;;;28.58;49.18;101083.94;5108065;27;99174;-68
2022/08/20 10:31:56;;;;;;;19.27;16.38;;;;;;;28.49;48.68;101087.63;5116043;27;98875;-70
2022/08/20 10:34:23;;;;;;;19.45;15.63;;;;;;;28.16;49.68;101091.19;5115569;27;97222;-70
2022/08/20 10:36:50;;;;;;;19.15;15.57;;;;;;;28.50;49.30;101087.47;5108610;27;97305;-70
2022/08/20 10:39:17;;;;;;;19.33;15.48;;;;;;;28.24;48.73;101077.63;5106283;27;99846;-69
2022/08/20 10:41:45;;;;;;;20.50;15.95;;;;;;;28.05;50.06;101093.13;5109466;27;97445;-70
2022/08/20 10:44:11;;;;;;;20.80;16.08;;;;;;;28.26;49.48;101086.50;5110494;27;97080;-70
2022/08/20 10:46:37;;;;;;;20.33;15.40;;;;;;;28.55;49.69;101081.56;5108283;27;96856;-70
2022/08/20 10:49:04;;;;;;;17.90;14.15;;;;;;;28.82;49.15;101084.09;5108303;27;99096;-69
2022/08/20 10:51:31;;;;;;;16.83;14.35;;;;;;;28.71;47.78;101083.50;5105885;27;99341;-70
2022/08/20 10:53:57;;;;;;;17.67;14.07;;;;;;;28.72;48.19;101094.22;5111587;27;96785;-70
2022/08/20 10:56:23;;;;;;;21.98;14.25;;;;;;;29.22;47.07;101080.63;5107037;27;97360;-69
2022/08/20 10:58:51;;;;;;;15.35;13.20;;;;;;;29.49;45.93;101082.25;5112077;27;99083;-69
2022/08/20 11:01:19;;;;;;;16.40;11.85;;;;;;;28.85;45.72;101088.34;5110386;27;98976;-70
2022/08/20 11:03:46;;;;;;;15.68;12.05;;;;;;;29.08;45.54;101094.06;5112011;27;97216;-68
2022/08/20 11:06:13;;;;;;;15.65;11.13;;;;;;;28.62;46.02;101096.19;5110940;27;96821;-68
2022/08/20 11:08:40;;;;;;;10.90;9.77;;;;;;;28.92;45.88;101101.13;5111593;27;99238;-68
2022/08/20 11:11:07;;;;;;;13.40;10.20;;;;;;;28.89;46.04;101095.16;5115977;27;98883;-69
2022/08/20 11:13:34;;;;;;;12.73;10.18;;;;;;;28.70;44.72;101100.81;5110601;27;98726;-69
2022/08/20 11:16:02;;;;;;;12.77;9.85;;;;;;;28.45;45.56;101099.84;5107377;27;96862;-69
2022/08/20 11:18:29;;;;;;;12.40;9.65;;;;;;;28.26;47.01;101097.38;5111435;27;98924;-68
2022/08/20 11:20:56;;;;;;;13.07;9.93;;;;;;;28.40;46.41;101094.06;5104806;27;98844;-70
2022/08/20 11:23:22;;;;;;;10.20;9.10;;;;;;;28.20;46.25;101103.44;5110643;27;96653;-69
2022/08/20 11:25:49;;;;;;;12.68;9.82;;;;;;;28.29;46.47;101103.31;5105481;27;97002;-67